Time;durP1;ratioP1;P1;durP2;ratioP2;P2;SDS_P1;SDS_P2;PMS_P1;PMS_P2;Temp;Humidity;BMP_temperature;BMP_pressure;BME280_temperature;BME280_humidity;BME280_pressure;Samples;Min_cycle;Max_cycle;Signal;HPM_P1;HPM_P2
2021/04/26 00:02:00;;;;;;;12.98;6.28;;;;;;;4.30;70.20;100916.22;5055834;28;20041;-74
2021/04/26 00:04:27;;;;;;;11.15;5.47;;;;;;;4.30;70.17;100913.59;5056345;28;20079;-75
2021/04/26 00:06:53;;;;;;;15.45;5.75;;;;;;;4.26;70.45;100914.56;5052145;28;20048;-75
2021/04/26 00:09:19;;;;;;;12.80;5.88;;;;;;;4.25;70.36;100907.53;5055933;28;20057;-75
2021/04/26 00:11:45;;;;;;;15.07;5.28;;;;;;;4.31;70.09;100913.53;5056169;28;20044;-74
2021/04/26 00:14:12;;;;;;;16.08;5.85;;;;;;;4.26;70.45;100915.44;5055274;28;20049;-74
2021/04/26 00:16:38;;;;;;;17.98;5.47;;;;;;;4.16;70.69;100898.91;5056596;28;20354;-75
2021/04/26 00:19:05;;;;;;;14.23;5.97;;;;;;;3.96;71.49;100909.06;5054979;28;20053;-75
2021/04/26 00:21:31;;;;;;;16.17;6.78;;;;;;;3.88;71.56;100903.91;5055825;28;20426;-75
2021/04/26 00:23:57;;;;;;;17.10;6.63;;;;;;;3.87;71.45;100902.19;5038132;28;20053;-75
2021/04/26 00:26:23;;;;;;;19.00;6.82;;;;;;;3.94;71.53;100901.16;5055902;28;20083;-75
2021/04/26 00:28:50;;;;;;;20.23;5.97;;;;;;;3.90;71.64;100895.06;5054846;28;20470;-75
2021/04/26 00:31:16;;;;;;;12.38;5.63;;;;;;;3.93;71.77;100894.97;5055834;28;20052;-75
2021/04/26 00:33:42;;;;;;;14.68;5.35;;;;;;;3.81;72.13;100887.31;5055846;28;20045;-75
2021/04/26 00:36:09;;;;;;;13.50;5.68;;;;;;;3.78;71.86;100888.28;5055620;28;20057;-74
2021/04/26 00:38:35;;;;;;;13.35;5.78;;;;;;;3.74;71.93;100881.31;5055136;28;20107;-75
2021/04/26 00:41:02;;;;;;;13.95;5.60;;;;;;;3.74;72.11;100875.16;5055306;28;20430;-75
2021/04/26 00:43:28;;;;;;;13.93;5.57;;;;;;;3.70;72.22;100871.72;5055281;28;20045;-74
2021/04/26 00:45:54;;;;;;;11.73;5.88;;;;;;;3.73;71.90;100873.41;5055713;28;20052;-74
2021/04/26 00:48:20;;;;;;;9.90;5.55;;;;;;;3.74;72.34;100872.50;5054252;28;20057;-75
2021/04/26 00:50:46;;;;;;;10.60;5.10;;;;;;;3.63;71.94;100864.81;5055321;28;20057;-74
2021/04/26 00:53:13;;;;;;;14.90;5.85;;;;;;;3.64;72.34;100863.91;5055461;28;20048;-75
2021/04/26 00:55:40;;;;;;;12.20;5.55;;;;;;;3.63;72.29;100868.34;5055747;28;20094;-75
2021/04/26 00:58:07;;;;;;;11.98;5.53;;;;;;;3.62;71.89;100861.31;5055309;28;20053;-74
2021/04/26 01:00:34;;;;;;;9.73;5.30;;;;;;;3.58;72.25;100869.31;5054267;28;20044;-75
2021/04/26 01:03:00;;;;;;;14.27;6.38;;;;;;;3.57;72.66;100878.13;5055440;28;20057;-74
2021/04/26 01:05:29;;;;;;;11.43;6.13;;;;;;;3.64;72.08;100870.06;5054287;28;20048;-74
2021/04/26 01:07:56;;;;;;;12.68;6.03;;;;;;;3.53;72.22;100866.78;5055162;28;20053;-74
2021/04/26 01:10:26;;;;;;;12.32;5.30;;;;;;;3.56;72.19;100865.84;5054924;28;20053;-74
2021/04/26 01:12:53;;;;;;;;;;;;;;;3.53;72.17;100872.06;5054314;28;20107;-75
2021/04/26 01:15:24;;;;;;;17.73;5.47;;;;;;;3.58;71.68;100867.56;5055559;28;19924;-74
2021/04/26 01:17:58;;;;;;;13.80;5.88;;;;;;;3.64;71.61;100869.19;5055798;28;20059;-73
2021/04/26 01:20:50;;;;;;;12.15;5.65;;;;;;;3.56;72.14;100866.72;5055192;28;20060;-74
2021/04/26 01:23:44;;;;;;;15.63;5.55;;;;;;;3.50;72.02;100862.41;5053969;28;20431;-75
2021/04/26 01:26:23;;;;;;;14.30;5.15;;;;;;;3.49;72.39;100857.19;5053845;28;20106;-75
2021/04/26 01:29:23;;;;;;;11.15;5.72;;;;;;;3.50;72.35;100857.16;5054722;28;20444;-74
2021/04/26 01:31:55;;;;;;;11.95;5.45;;;;;;;3.46;72.26;100862.53;5054861;28;20052;-76
2021/04/26 01:34:23;;;;;;;14.18;5.75;;;;;;;3.46;72.10;100860.75;5053987;28;20107;-75
2021/04/26 01:36:51;;;;;;;12.40;6.05;;;;;;;3.39;72.52;100853.88;5054685;28;20480;-74
2021/04/26 01:39:18;;;;;;;16.65;5.78;;;;;;;3.38;72.60;100860.06;5053528;28;20053;-75
2021/04/26 01:41:48;;;;;;;12.18;6.20;;;;;;;3.39;72.56;100846.81;5054657;28;20056;-74
2021/04/26 01:44:16;;;;;;;11.45;6.38;;;;;;;3.33;73.06;100854.84;5053657;28;20049;-74
2021/04/26 01:46:43;;;;;;;9.32;5.88;;;;;;;3.38;72.83;100850.34;5054634;28;20075;-75
2021/04/26 01:49:11;;;;;;;22.08;6.22;;;;;;;3.38;73.20;100846.88;5054811;28;20126;-74
2021/04/26 01:51:38;;;;;;;17.70;6.43;;;;;;;3.25;73.27;100838.31;5055714;28;20057;-73
2021/04/26 01:54:05;;;;;;;15.73;5.97;;;;;;;3.23;73.80;100848.03;5058641;28;20053;-74
2021/04/26 01:56:35;;;;;;;10.77;6.15;;;;;;;3.28;73.67;100843.53;5058420;28;20427;-74
2021/04/26 01:59:04;;;;;;;9.35;6.15;;;;;;;3.22;73.72;100836.59;5058476;28;20049;-74
2021/04/26 02:01:31;;;;;;;17.02;6.60;;;;;;;3.11;73.85;100841.22;5058732;28;20134;-74
2021/04/26 02:04:05;;;;;;;13.18;6.00;;;;;;;3.04;73.93;100835.19;5058211;28;20342;-74
2021/04/26 02:06:32;;;;;;;15.55;6.55;;;;;;;3.01;74.31;100840.53;5058539;28;20045;-74
2021/04/26 02:09:00;;;;;;;10.38;6.03;;;;;;;3.05;73.90;100843.97;5058470;28;20045;-74
2021/04/26 02:11:27;;;;;;;14.73;6.03;;;;;;;2.98;74.20;100840.56;5058305;28;20056;-74
2021/04/26 02:13:54;;;;;;;14.13;6.10;;;;;;;2.92;73.99;100827.50;5058014;28;20048;-74
2021/04/26 02:16:22;;;;;;;16.38;6.85;;;;;;;3.02;74.06;100831.72;5057115;28;20076;-73
2021/04/26 02:18:48;;;;;;;11.38;6.57;;;;;;;3.02;74.02;100836.97;5058144;28;20114;-74
2021/04/26 02:21:14;;;;;;;16.73;7.65;;;;;;;2.96;74.52;100830.03;5059947;28;20426;-74
2021/04/26 02:23:41;;;;;;;18.30;6.55;;;;;;;2.92;74.52;100825.72;5060589;28;20048;-73
2021/04/26 02:26:07;;;;;;;12.35;7.32;;;;;;;2.90;74.51;100818.75;5060806;28;20053;-73
2021/04/26 02:28:33;;;;;;;18.13;7.57;;;;;;;2.80;75.05;100823.31;5057389;28;20099;-76
2021/04/26 02:31:00;;;;;;;11.48;6.65;;;;;;;2.70;74.86;100817.34;5057816;28;20052;-75
2021/04/26 02:33:56;;;;;;;16.63;7.90;;;;;;;2.69;75.19;100805.94;5059850;28;20053;-74
2021/04/26 02:36:34;;;;;;;20.63;8.02;;;;;;;2.70;75.46;100812.06;5049934;28;20323;-74
2021/04/26 02:39:05;;;;;;;12.65;7.28;;;;;;;2.71;74.98;100814.69;5058864;28;20053;-75
2021/04/26 02:41:33;;;;;;;;;;;;;;;2.70;74.87;100814.69;5058120;28;20045;-74
2021/04/26 02:44:03;;;;;;;19.60;8.15;;;;;;;2.76;74.82;100809.31;5057548;28;19970;-74
2021/04/26 02:46:32;;;;;;;15.93;7.32;;;;;;;2.74;74.63;100807.59;5057297;28;20056;-74
2021/04/26 02:48:59;;;;;;;10.00;6.95;;;;;;;2.70;74.96;100809.44;5057615;28;20430;-75
2021/04/26 02:51:29;;;;;;;14.80;7.95;;;;;;;2.64;74.81;100812.16;5057208;28;20122;-75
2021/04/26 02:53:57;;;;;;;13.13;7.32;;;;;;;2.63;75.42;100795.50;5057400;28;20064;-75
2021/04/26 02:56:26;;;;;;;15.38;7.40;;;;;;;2.71;75.51;100808.53;5056182;28;20052;-74
2021/04/26 02:58:56;;;;;;;16.08;7.40;;;;;;;2.66;75.66;100815.66;5057662;28;20049;-74
2021/04/26 03:01:23;;;;;;;16.88;7.90;;;;;;;2.67;75.04;100814.78;5057479;28;20053;-75
2021/04/26 03:03:50;;;;;;;19.70;8.68;;;;;;;2.67;74.89;100791.06;5057227;28;20056;-75
2021/04/26 03:06:18;;;;;;;15.02;9.38;;;;;;;2.60;75.11;100794.69;5069076;28;20051;-75
2021/04/26 03:08:46;;;;;;;18.58;8.90;;;;;;;2.50;75.57;100793.97;5077388;28;20095;-74
2021/04/26 03:11:15;;;;;;;17.17;9.38;;;;;;;2.47;75.87;100794.91;5077061;28;20056;-74
2021/04/26 03:13:42;;;;;;;22.10;9.65;;;;;;;2.44;75.68;100789.66;5077393;28;20064;-73
2021/04/26 03:16:09;;;;;;;22.85;8.98;;;;;;;2.35;75.91;100789.84;5077311;28;20113;-74
2021/04/26 03:18:37;;;;;;;19.50;9.60;;;;;;;2.28;76.10;100779.41;5077043;28;20389;-75
2021/04/26 03:21:08;;;;;;;21.58;10.20;;;;;;;2.40;75.76;100788.00;5075884;28;20072;-75
2021/04/26 03:23:35;;;;;;;15.77;9.07;;;;;;;2.35;75.55;100785.44;5077188;28;20044;-74
2021/04/26 03:26:04;;;;;;;16.20;9.27;;;;;;;2.23;76.34;100775.97;5076115;28;20057;-75
2021/04/26 03:28:33;;;;;;;19.67;9.95;;;;;;;2.26;76.20;100770.66;5076982;28;20126;-74
2021/04/26 03:31:01;;;;;;;17.13;9.23;;;;;;;2.16;76.42;100774.31;5075628;28;20049;-75
2021/04/26 03:33:34;;;;;;;20.60;8.70;;;;;;;2.12;76.41;100770.88;5076944;28;20102;-75
2021/04/26 03:36:01;;;;;;;18.05;9.23;;;;;;;2.06;76.53;100773.59;5076724;28;20473;-74
2021/04/26 03:38:28;;;;;;;16.23;8.25;;;;;;;2.06;76.57;100775.38;5076542;28;20102;-76
2021/04/26 03:40:57;;;;;;;17.23;8.32;;;;;;;2.00;76.88;100768.44;5075365;28;20060;-75
2021/04/26 03:43:25;;;;;;;12.43;8.00;;;;;;;2.05;76.80;100768.38;5076875;28;20052;-74
2021/04/26 03:45:54;;;;;;;15.65;8.48;;;;;;;1.95;77.05;100759.75;5076295;28;20064;-74
2021/04/26 03:48:20;;;;;;;14.40;7.78;;;;;;;1.98;77.21;100764.97;5076334;28;20044;-73
2021/04/26 03:50:46;;;;;;;19.33;7.93;;;;;;;1.97;77.02;100773.75;5076460;28;20048;-74
2021/04/26 03:53:13;;;;;;;14.95;7.55;;;;;;;1.89;77.06;100764.22;5092036;28;20055;-75
2021/04/26 03:55:39;;;;;;;13.80;7.82;;;;;;;1.84;77.09;100747.63;5076232;28;20045;-74
2021/04/26 03:58:06;;;;;;;12.38;7.43;;;;;;;1.95;76.97;100760.59;5076158;28;20056;-74
2021/04/26 04:00:34;;;;;;;11.38;7.88;;;;;;;1.97;76.83;100748.28;5075868;28;20440;-74
2021/04/26 04:03:06;;;;;;;19.77;7.78;;;;;;;1.98;76.41;100760.56;5076249;28;20075;-74
2021/04/26 04:05:32;;;;;;;15.02;8.85;;;;;;;1.98;76.47;100755.31;5070236;28;20056;-75
2021/04/26 04:07:58;;;;;;;23.13;7.40;;;;;;;2.04;76.42;100746.44;5056277;28;20122;-74
2021/04/26 04:10:25;;;;;;;17.48;8.10;;;;;;;2.00;76.97;100756.16;5059217;28;20056;-75
2021/04/26 04:12:51;;;;;;;20.20;7.68;;;;;;;2.20;76.05;100752.31;5064648;28;20045;-75
2021/04/26 04:15:18;;;;;;;15.02;6.72;;;;;;;2.17;76.17;100755.88;5055378;28;20060;-74
2021/04/26 04:17:44;;;;;;;18.50;7.93;;;;;;;2.19;76.17;100753.22;5054837;28;20061;-75
2021/04/26 04:20:12;;;;;;;25.45;8.18;;;;;;;2.20;75.97;100752.31;5038354;28;20080;-75
2021/04/26 04:22:38;;;;;;;12.85;7.00;;;;;;;2.22;75.96;100758.44;5056334;28;20045;-76
2021/04/26 04:25:07;;;;;;;16.67;7.50;;;;;;;2.19;76.08;100745.31;5055874;28;20063;-74
2021/04/26 04:27:34;;;;;;;15.95;7.80;;;;;;;2.21;76.01;100755.81;5038282;28;20056;-74
2021/04/26 04:30:00;;;;;;;13.93;7.47;;;;;;;2.24;76.29;100759.25;5056259;28;20052;-74
2021/04/26 04:32:27;;;;;;;13.15;6.60;;;;;;;2.21;76.44;100761.97;5055366;28;20089;-75
2021/04/26 04:34:54;;;;;;;14.32;7.15;;;;;;;2.20;76.32;100749.69;5038356;28;20072;-75
2021/04/26 04:37:20;;;;;;;13.13;7.72;;;;;;;2.26;76.20;100762.75;5054572;28;20052;-74
2021/04/26 04:39:46;;;;;;;13.70;6.60;;;;;;;2.14;76.21;100745.38;5055321;28;20083;-74
2021/04/26 04:42:12;;;;;;;14.48;7.32;;;;;;;2.16;76.59;100748.00;5055198;28;20084;-74
2021/04/26 04:44:38;;;;;;;15.27;7.55;;;;;;;2.16;76.84;100759.41;5055395;28;20048;-75
2021/04/26 04:47:04;;;;;;;19.38;7.25;;;;;;;2.18;76.95;100762.00;5071877;28;20059;-75
2021/04/26 04:49:31;;;;;;;15.57;6.95;;;;;;;2.23;76.70;100759.31;5075446;28;20045;-75
2021/04/26 04:51:57;;;;;;;11.98;7.20;;;;;;;2.16;76.59;100758.53;5072730;28;20052;-81
2021/04/26 04:54:23;;;;;;;14.80;6.70;;;;;;;2.23;76.31;100764.56;5074360;28;20400;-76
2021/04/26 04:56:53;;;;;;;17.65;6.88;;;;;;;2.24;76.63;100767.16;5073379;28;20085;-76
2021/04/26 04:59:20;;;;;;;16.83;7.97;;;;;;;2.22;76.58;100776.00;5073416;28;20049;-75
2021/04/26 05:01:46;;;;;;;17.40;7.30;;;;;;;2.29;75.95;100769.75;5064248;28;20102;-76
2021/04/26 05:04:13;;;;;;;16.60;7.68;;;;;;;2.33;77.38;100770.56;5065267;28;20072;-73
2021/04/26 05:06:39;;;;;;;15.00;7.57;;;;;;;2.23;77.08;100759.31;5064855;28;20327;-76
2021/04/26 05:09:06;;;;;;;21.08;8.02;;;;;;;2.31;77.51;100774.06;5055413;28;20114;-74
2021/04/26 05:11:33;;;;;;;16.05;8.95;;;;;;;2.31;77.36;100774.06;5064192;28;20045;-75
2021/04/26 05:14:00;;;;;;;12.50;6.97;;;;;;;2.24;77.26;100751.34;5054615;28;20049;-75
2021/04/26 05:16:28;;;;;;;12.38;7.65;;;;;;;2.41;76.72;100768.66;5058396;28;20044;-75
2021/04/26 05:18:58;;;;;;;16.58;7.80;;;;;;;2.40;77.03;100761.66;5055129;28;20060;-76
2021/04/26 05:21:24;;;;;;;20.77;8.70;;;;;;;2.47;77.06;100767.66;5053430;28;20508;-76
2021/04/26 05:23:51;;;;;;;18.25;9.07;;;;;;;2.49;76.78;100766.75;5052784;28;20053;-76
2021/04/26 05:26:18;;;;;;;19.88;8.55;;;;;;;2.59;76.83;100772.72;5056845;28;20099;-75
2021/04/26 05:28:44;;;;;;;20.60;9.43;;;;;;;2.61;76.64;100765.66;5061902;28;20064;-75
2021/04/26 05:31:10;;;;;;;21.67;8.13;;;;;;;2.67;76.10;100765.53;5076245;28;20048;-75
2021/04/26 05:33:36;;;;;;;15.48;8.38;;;;;;;2.75;75.99;100772.44;5079239;28;20045;-74
2021/04/26 05:36:02;;;;;;;20.77;7.88;;;;;;;2.76;75.84;100764.50;5079277;28;20059;-76
2021/04/26 05:38:29;;;;;;;14.60;8.43;;;;;;;2.93;75.56;100765.94;5078730;28;20059;-76
2021/04/26 05:40:55;;;;;;;16.23;7.53;;;;;;;3.04;74.95;100773.66;5062572;28;20438;-76
2021/04/26 05:43:21;;;;;;;16.80;7.95;;;;;;;3.14;74.37;100774.34;5059407;28;20114;-76
2021/04/26 05:45:47;;;;;;;19.27;7.53;;;;;;;3.27;73.78;100781.09;5052639;28;20100;-72
2021/04/26 05:48:13;;;;;;;20.80;8.27;;;;;;;3.35;73.16;100781.81;5077642;28;20049;-75
2021/04/26 05:50:40;;;;;;;11.30;7.90;;;;;;;3.38;72.60;100779.09;5073582;28;20045;-74
2021/04/26 05:53:06;;;;;;;17.95;8.65;;;;;;;3.43;73.04;100770.22;5077479;28;20051;-74
2021/04/26 05:55:33;;;;;;;18.90;8.07;;;;;;;3.54;71.99;100776.13;5057347;28;20045;-74
2021/04/26 05:57:59;;;;;;;18.23;7.70;;;;;;;3.62;71.55;100771.56;5058683;28;20071;-75
2021/04/26 06:00:26;;;;;;;17.27;8.13;;;;;;;3.66;71.83;100773.22;5061525;28;20354;-73
2021/04/26 06:02:58;;;;;;;17.60;8.48;;;;;;;3.72;71.10;100752.88;5071262;28;20070;-75
2021/04/26 06:05:27;;;;;;;15.88;7.10;;;;;;;3.82;70.92;100757.06;5060307;28;20106;-73
2021/04/26 06:07:53;;;;;;;17.52;8.07;;;;;;;3.89;70.96;100748.09;5057819;28;20055;-76
2021/04/26 06:10:19;;;;;;;19.88;8.13;;;;;;;3.92;70.25;100741.84;5059892;28;20056;-79
2021/04/26 06:12:46;;;;;;;16.25;7.50;;;;;;;4.11;69.41;100750.19;5078240;28;20067;-76
2021/04/26 06:15:12;;;;;;;17.17;7.82;;;;;;;4.10;69.81;100753.75;5078012;28;20412;-76
2021/04/26 06:17:38;;;;;;;19.55;8.38;;;;;;;4.20;69.13;100754.38;5077080;28;20059;-75
2021/04/26 06:20:10;;;;;;;19.15;7.63;;;;;;;4.25;69.05;100760.41;5077521;28;20087;-75
2021/04/26 06:22:37;;;;;;;27.35;9.27;;;;;;;4.14;69.13;100731.63;5077858;28;20063;-75
2021/04/26 06:25:03;;;;;;;19.83;8.70;;;;;;;4.26;69.12;100745.44;5073884;28;20045;-74
2021/04/26 06:27:29;;;;;;;21.20;8.43;;;;;;;4.43;68.26;100758.22;5069577;28;20052;-74
2021/04/26 06:29:56;;;;;;;18.27;8.23;;;;;;;4.44;68.72;100754.66;5077892;28;20056;-76
2021/04/26 06:32:24;;;;;;;20.63;8.45;;;;;;;4.46;68.03;100758.13;5077865;28;20539;-76
2021/04/26 06:34:51;;;;;;;19.10;7.72;;;;;;;4.46;68.22;100744.91;5077662;28;20620;-76
2021/04/26 06:37:18;;;;;;;19.48;8.93;;;;;;;4.62;68.06;100758.59;5076237;28;20052;-75
2021/04/26 06:39:44;;;;;;;21.25;8.52;;;;;;;4.67;67.85;100761.97;5070996;28;20064;-75
2021/04/26 06:42:10;;;;;;;19.70;8.85;;;;;;;4.71;67.44;100742.50;5073695;28;20053;-76
2021/04/26 06:44:39;;;;;;;16.48;8.77;;;;;;;4.74;66.70;100738.91;5057600;28;20057;-75
2021/04/26 06:47:06;;;;;;;15.77;7.82;;;;;;;4.89;65.83;100750.81;5056551;28;20107;-75
2021/04/26 06:49:32;;;;;;;14.18;7.43;;;;;;;4.94;65.55;100755.97;5057392;28;20358;-77
2021/04/26 06:51:59;;;;;;;23.50;7.95;;;;;;;5.00;65.71;100758.44;5057623;28;20110;-75
2021/04/26 06:54:25;;;;;;;12.20;7.28;;;;;;;5.07;65.23;100752.06;5057428;28;20049;-74
2021/04/26 06:56:51;;;;;;;15.30;6.45;;;;;;;5.11;64.01;100723.75;5057593;28;20057;-77
2021/04/26 06:59:21;;;;;;;18.80;6.80;;;;;;;5.32;63.94;100743.41;5055672;28;20143;-74
2021/04/26 07:01:47;;;;;;;15.85;7.43;;;;;;;5.38;63.59;100742.38;5058264;28;20049;-76
2021/04/26 07:04:13;;;;;;;14.05;7.50;;;;;;;5.48;63.29;100741.19;5058934;28;20060;-76
2021/04/26 07:06:39;;;;;;;14.95;7.38;;;;;;;5.46;62.22;100729.78;5060235;28;20132;-76
2021/04/26 07:09:06;;;;;;;21.23;7.85;;;;;;;5.56;63.15;100736.53;5058775;28;20118;-75
2021/04/26 07:11:32;;;;;;;15.13;7.93;;;;;;;5.56;63.57;100725.06;5057054;28;20056;-75
2021/04/26 07:13:58;;;;;;;14.45;7.82;;;;;;;5.67;62.83;100730.88;5055920;28;20053;-75
2021/04/26 07:16:26;;;;;;;16.58;7.30;;;;;;;5.74;62.45;100728.94;5056870;28;20052;-76
2021/04/26 07:18:53;;;;;;;17.42;7.45;;;;;;;5.72;62.63;100709.53;5056079;28;20055;-75
2021/04/26 07:21:19;;;;;;;27.48;7.20;;;;;;;5.82;61.79;100711.00;5057089;28;20057;-76
2021/04/26 07:23:46;;;;;;;20.08;7.53;;;;;;;5.89;61.18;100718.75;5057370;28;20055;-75
2021/04/26 07:26:12;;;;;;;13.98;6.13;;;;;;;5.95;61.08;100705.31;5056087;28;20064;-75
2021/04/26 07:28:38;;;;;;;12.40;5.68;;;;;;;6.12;60.37;100704.78;5056626;28;20053;-75
2021/04/26 07:31:05;;;;;;;13.27;4.68;;;;;;;6.20;59.68;100713.31;5055927;28;20065;-76
2021/04/26 07:33:31;;;;;;;18.65;5.05;;;;;;;6.21;59.31;100704.44;5056664;28;20132;-76
2021/04/26 07:35:58;;;;;;;15.55;5.72;;;;;;;6.37;59.21;100702.13;5056852;28;20045;-75
2021/04/26 07:38:24;;;;;;;10.43;4.82;;;;;;;6.50;58.95;100717.63;5055503;28;20052;-75
2021/04/26 07:40:51;;;;;;;12.82;5.38;;;;;;;6.55;58.12;100715.69;5056079;28;20061;-76
2021/04/26 07:43:17;;;;;;;14.75;5.68;;;;;;;6.61;57.73;100714.59;5056539;28;20057;-76
2021/04/26 07:45:43;;;;;;;9.88;4.95;;;;;;;6.71;57.18;100713.31;5056604;28;20061;-76
2021/04/26 07:48:10;;;;;;;12.80;5.60;;;;;;;6.70;57.04;100703.63;5054657;28;20052;-75
2021/04/26 07:50:36;;;;;;;9.13;4.90;;;;;;;6.81;56.68;100705.91;5056385;28;20405;-76
2021/04/26 07:53:02;;;;;;;11.55;5.13;;;;;;;6.99;57.25;100699.06;5056401;28;20129;-76
2021/04/26 07:55:29;;;;;;;9.82;4.20;;;;;;;7.11;55.82;100708.34;5056352;28;20053;-76
2021/04/26 07:57:58;;;;;;;12.60;5.55;;;;;;;7.14;56.28;100707.38;5056570;28;20111;-76
2021/04/26 08:00:24;;;;;;;10.07;4.63;;;;;;;7.17;54.95;100705.47;5054886;28;20476;-77
2021/04/26 08:02:50;;;;;;;12.23;4.68;;;;;;;7.33;55.17;100708.41;5056306;28;20053;-76
2021/04/26 08:05:17;;;;;;;9.27;3.88;;;;;;;7.56;52.31;100695.13;5056235;28;20044;-76
2021/04/26 08:07:43;;;;;;;7.57;3.38;;;;;;;7.56;51.94;100689.81;5056365;28;20123;-76
2021/04/26 08:10:12;;;;;;;7.80;4.05;;;;;;;7.69;51.91;100699.03;5055306;28;20056;-77
2021/04/26 08:12:44;;;;;;;8.32;3.50;;;;;;;7.75;51.11;100701.44;5056220;28;20063;-76
2021/04/26 08:15:11;;;;;;;8.15;3.88;;;;;;;7.82;50.95;100693.22;5056265;28;20049;-76
2021/04/26 08:17:38;;;;;;;13.70;3.33;;;;;;;7.79;50.38;100691.53;5056282;28;20057;-76
2021/04/26 08:20:05;;;;;;;7.85;3.45;;;;;;;7.88;50.76;100688.53;5055611;28;20465;-76
2021/04/26 08:22:32;;;;;;;10.88;3.72;;;;;;;7.99;50.45;100688.06;5054600;28;20098;-76
2021/04/26 08:25:04;;;;;;;6.90;3.00;;;;;;;8.11;49.87;100699.09;5055328;28;20049;-76
2021/04/26 08:27:30;;;;;;;10.23;3.30;;;;;;;8.22;50.24;100701.34;5054693;28;20356;-75
2021/04/26 08:29:56;;;;;;;11.70;3.70;;;;;;;8.26;49.06;100693.16;5055333;28;20090;-76
2021/04/26 08:32:23;;;;;;;11.20;3.35;;;;;;;8.27;47.27;100694.00;5055440;28;20052;-76
2021/04/26 08:34:49;;;;;;;10.60;3.45;;;;;;;8.38;46.79;100697.06;5054384;28;20053;-77
2021/04/26 08:37:16;;;;;;;10.90;3.30;;;;;;;8.40;46.63;100697.03;5055421;28;20059;-77
2021/04/26 08:39:42;;;;;;;13.55;3.67;;;;;;;8.46;48.10;100694.09;5054832;28;20068;-75
2021/04/26 08:42:09;;;;;;;12.65;3.40;;;;;;;8.49;47.59;100693.94;5055523;28;20053;-75
2021/04/26 08:44:35;;;;;;;10.38;3.88;;;;;;;8.52;46.96;100683.22;5054088;28;20048;-76
2021/04/26 08:47:02;;;;;;;9.48;3.40;;;;;;;8.64;46.15;100691.56;5055640;28;20057;-78
2021/04/26 08:49:31;;;;;;;13.52;4.18;;;;;;;8.51;46.30;100672.59;5054479;28;20053;-78
2021/04/26 08:51:57;;;;;;;13.10;3.90;;;;;;;8.63;45.14;100676.53;5055165;28;20045;-78
2021/04/26 08:54:23;;;;;;;11.90;3.40;;;;;;;8.75;44.73;100691.09;5054292;28;20045;-77
2021/04/26 08:56:50;;;;;;;8.32;3.15;;;;;;;8.99;49.88;100691.78;5055372;28;20118;-72
2021/04/26 08:59:16;;;;;;;11.80;2.92;;;;;;;9.37;44.81;100688.25;5055531;28;20115;-74
2021/04/26 09:02:02;;;;;;;4.13;2.38;;;;;;;9.49;42.97;100687.66;5054875;28;20438;-79
2021/04/26 09:04:28;;;;;;;7.13;2.97;;;;;;;9.37;42.91;100689.13;5055169;28;20094;-76
2021/04/26 09:06:58;;;;;;;5.43;3.00;;;;;;;9.47;43.48;100684.22;5070993;28;20048;-74
2021/04/26 09:09:42;;;;;;;8.20;2.93;;;;;;;9.56;42.55;100682.91;5075281;28;20381;-77
2021/04/26 09:12:21;;;;;;;7.78;3.28;;;;;;;9.67;44.32;100676.19;5075295;28;20397;-76
2021/04/26 09:14:53;;;;;;;8.95;2.30;;;;;;;9.66;39.93;100680.66;5074087;28;20056;-76
2021/04/26 09:17:30;;;;;;;8.77;2.75;;;;;;;9.68;40.96;100677.91;5074010;28;20067;-76
2021/04/26 09:19:59;;;;;;;10.48;1.90;;;;;;;9.79;39.48;100680.91;5075021;28;20048;-76
2021/04/26 09:22:53;;;;;;;5.05;1.95;;;;;;;9.92;38.12;100671.38;5074483;28;20519;-76
2021/04/26 09:25:31;;;;;;;7.75;2.30;;;;;;;9.98;37.80;100664.00;5074179;28;20056;-74
2021/04/26 09:28:19;;;;;;;6.20;2.10;;;;;;;10.06;38.67;100669.81;5075474;28;20052;-73
2021/04/26 09:30:47;;;;;;;5.95;2.85;;;;;;;10.10;37.03;100663.41;5074032;28;20059;-74
2021/04/26 09:33:32;;;;;;;6.55;1.90;;;;;;;10.21;37.55;100651.28;5075140;28;20135;-75
2021/04/26 09:36:14;;;;;;;7.72;2.17;;;;;;;10.31;36.83;100655.22;5074910;28;20053;-75
2021/04/26 09:39:04;;;;;;;10.52;2.38;;;;;;;10.39;38.09;100662.81;5075623;28;20489;-76
2021/04/26 09:41:32;;;;;;;15.95;2.80;;;;;;;10.47;38.84;100649.97;5055100;28;20084;-75
2021/04/26 09:44:01;;;;;;;8.32;2.75;;;;;;;10.64;38.63;100656.22;5054130;28;20099;-74
2021/04/26 09:46:45;;;;;;;7.30;2.60;;;;;;;10.73;38.80;100653.03;5055386;28;20056;-75
2021/04/26 09:49:18;;;;;;;6.05;2.25;;;;;;;10.86;38.32;100645.25;5055650;28;20053;-75
2021/04/26 09:51:54;;;;;;;5.55;2.78;;;;;;;10.97;37.31;100640.19;5054483;28;20057;-75
2021/04/26 09:54:41;;;;;;;6.28;2.17;;;;;;;10.85;36.11;100622.16;5055415;28;20084;-79
2021/04/26 09:57:09;;;;;;;5.40;2.50;;;;;;;11.06;36.30;100620.09;5055286;28;20045;-79
2021/04/26 09:59:36;;;;;;;6.20;2.15;;;;;;;11.18;37.43;100628.38;5038177;28;20057;-78
2021/04/26 10:02:04;;;;;;;11.88;2.90;;;;;;;11.41;37.00;100622.63;5055890;28;20052;-78
2021/04/26 10:04:31;;;;;;;7.50;2.80;;;;;;;11.38;34.83;100616.56;5054681;28;20056;-80
2021/04/26 10:06:58;;;;;;;10.23;2.75;;;;;;;11.26;35.21;100589.59;5055704;28;20141;-79
2021/04/26 10:09:29;;;;;;;7.60;3.55;;;;;;;11.54;35.25;100614.75;5053676;28;20072;-78
2021/04/26 10:11:55;;;;;;;8.23;2.47;;;;;;;11.56;35.24;100612.00;5062316;28;20108;-80
2021/04/26 10:14:22;;;;;;;5.45;2.78;;;;;;;11.67;35.07;100592.63;5076863;28;20051;-78
2021/04/26 10:17:00;;;;;;;6.70;2.58;;;;;;;11.74;35.26;100596.69;5057730;28;20084;-77
2021/04/26 10:19:34;;;;;;;12.93;2.45;;;;;;;11.88;34.84;100592.31;5069466;28;20048;-77
2021/04/26 10:22:04;;;;;;;4.35;2.33;;;;;;;12.11;34.79;100596.31;5058584;28;20048;-75
2021/04/26 10:24:33;;;;;;;5.87;2.40;;;;;;;12.14;34.17;100573.88;5057283;28;20257;-75
2021/04/26 10:27:05;;;;;;;12.73;2.88;;;;;;;12.16;33.30;100577.31;5057037;28;20056;-75
2021/04/26 10:29:35;;;;;;;9.63;2.80;;;;;;;12.19;34.53;100575.31;5058141;28;20053;-74
2021/04/26 10:32:05;;;;;;;13.25;3.10;;;;;;;12.21;34.59;100580.56;5057153;28;20091;-74
2021/04/26 10:34:33;;;;;;;5.00;3.05;;;;;;;12.19;33.99;100583.34;5056956;28;20190;-75
2021/04/26 10:37:22;;;;;;;11.13;3.55;;;;;;;12.29;33.63;100575.59;5058129;28;20053;-75
2021/04/26 10:40:00;;;;;;;7.00;2.92;;;;;;;12.50;31.84;100568.03;5063289;28;20060;-74
2021/04/26 10:42:33;;;;;;;6.80;2.63;;;;;;;12.57;31.98;100575.69;5077874;28;20056;-74
2021/04/26 10:45:02;;;;;;;12.32;3.08;;;;;;;12.95;34.15;100563.47;5076950;28;20135;-70
2021/04/26 10:47:32;;;;;;;6.15;2.60;;;;;;;12.94;32.71;100549.25;5077880;28;20353;-72
2021/04/26 10:50:05;;;;;;;10.27;3.13;;;;;;;12.94;31.54;100554.59;5077618;28;20454;-75
2021/04/26 10:52:36;;;;;;;8.18;2.33;;;;;;;13.10;33.21;100556.28;5077424;28;20507;-73
2021/04/26 10:55:17;;;;;;;;;;;;;;;13.15;31.33;100554.16;5078227;28;20067;-74
2021/04/26 10:57:49;;;;;;;6.93;2.33;;;;;;;13.19;31.36;100544.97;5076392;28;19931;-76
2021/04/26 11:03:05;;;;;;;7.97;2.17;;;;;;;13.37;31.39;100536.63;5077670;28;20056;-75
2021/04/26 11:05:35;;;;;;;12.60;2.55;;;;;;;13.51;31.17;100544.66;5070741;28;20057;-84
2021/04/26 11:08:11;;;;;;;5.40;2.30;;;;;;;13.50;31.20;100520.63;5057539;28;20193;-88
2021/04/26 11:10:52;;;;;;;7.38;2.03;;;;;;;13.40;31.15;100515.84;5077703;28;20127;-75
2021/04/26 11:13:30;;;;;;;11.88;2.30;;;;;;;13.49;31.69;100516.22;5073075;28;20049;-75
2021/04/26 11:16:13;;;;;;;15.98;2.42;;;;;;;13.77;31.71;100514.34;5065877;28;20067;-74
2021/04/26 11:18:43;;;;;;;4.45;2.20;;;;;;;14.01;31.26;100511.78;5055569;28;20366;-74
2021/04/26 11:21:11;;;;;;;5.53;1.98;;;;;;;14.14;31.79;100517.13;5056275;28;20087;-78
2021/04/26 11:24:00;;;;;;;6.13;1.85;;;;;;;14.14;30.55;100517.13;5054655;28;20052;-78
2021/04/26 11:26:26;;;;;;;4.03;2.10;;;;;;;14.13;29.09;100510.06;5056881;28;20397;-76
2021/04/26 11:29:02;;;;;;;5.07;1.67;;;;;;;14.48;31.12;100498.63;5065673;28;20068;-83
2021/04/26 11:31:46;;;;;;;9.70;2.10;;;;;;;14.75;29.30;100494.94;5056880;28;20465;-76
2021/04/26 11:34:18;;;;;;;4.72;1.80;;;;;;;14.57;28.52;100498.91;5058320;28;20130;-77
2021/04/26 11:37:02;;;;;;;8.95;1.98;;;;;;;14.68;28.57;100488.25;5056903;28;20056;-80
2021/04/26 11:39:38;;;;;;;7.63;1.90;;;;;;;14.69;28.20;100491.78;5059681;28;20048;-78